Time;durP1;ratioP1;P1;durP2;ratioP2;P2;SDS_P1;SDS_P2;PMS_P1;PMS_P2;Temp;Humidity;BMP_temperature;BMP_pressure;BME280_temperature;BME280_humidity;BME280_pressure;Samples;Min_cycle;Max_cycle;Signal;HPM_P1;HPM_P2
2022/05/08 00:01:57;;;;;;;;;;;;;;;18.65;57.87;101500.22;7403890;19;1536;-57
2022/05/08 00:04:25;;;;;;;;;;;;;;;18.63;57.76;101510.22;7406011;19;1533;-59
2022/05/08 00:06:56;;;;;;;;;;;;;;;18.63;58.12;101499.50;7403236;19;1843;-57
2022/05/08 00:09:24;;;;;;;;;;;;;;;18.62;57.84;101498.66;7402315;19;1295;-57
2022/05/08 00:11:53;;;;;;;;;;;;;;;18.63;57.94;101489.63;7403844;19;1278;-59
2022/05/08 00:14:21;;;;;;;;;;;;;;;18.62;58.03;101495.97;7404307;19;1393;-57
2022/05/08 00:16:49;;;;;;;;;;;;;;;18.62;57.82;101504.00;7404551;19;1420;-57
2022/05/08 00:19:18;;;;;;;;;;;;;;;18.60;58.29;101479.16;7405425;19;1359;-59
2022/05/08 00:21:46;;;;;;;;;;;;;;;18.59;58.06;101482.78;7403283;19;1674;-57
2022/05/08 00:24:17;;;;;;;;;;;;;;;18.61;57.70;101499.59;7404379;19;1366;-60
2022/05/08 00:26:45;;;;;;;;;;;;;;;18.60;57.84;101478.28;7403418;19;1863;-57
2022/05/08 00:29:15;;;;;;;;;;;;;;;18.59;58.16;101496.19;7403317;19;1255;-56
2022/05/08 00:31:43;;;;;;;;;;;;;;;18.60;58.19;101495.22;7404291;19;1472;-60
2022/05/08 00:34:11;;;;;;;;;;;;;;;18.58;57.97;101494.50;7403477;19;1460;-57
2022/05/08 00:36:40;;;;;;;;;;;;;;;18.59;57.94;101490.81;7402371;19;1898;-57
2022/05/08 00:39:08;;;;;;;;;;;;;;;18.61;57.96;101507.63;7402773;19;1868;-58
2022/05/08 00:41:39;;;;;;;;;;;;;;;18.59;57.80;101495.34;7403366;19;1416;-59
2022/05/08 00:44:07;;;;;;;;;;;;;;;18.59;57.73;101504.22;7403075;19;1369;-57
2022/05/08 00:46:36;;;;;;;;;;;;;;;18.59;57.57;101504.22;7411479;19;1879;-57
2022/05/08 00:49:04;;;;;;;;;;;;;;;18.60;57.95;101487.19;7411054;19;1389;-59
2022/05/08 00:51:32;;;;;;;;;;;;;;;18.56;57.97;101480.34;7409921;19;1247;-59
2022/05/08 00:54:04;;;;;;;;;;;;;;;18.58;57.92;101475.75;7411996;19;1370;-57
2022/05/08 00:56:33;;;;;;;;;;;;;;;18.57;58.08;101479.38;7410867;19;1699;-59
2022/05/08 00:59:04;;;;;;;;;;;;;;;18.57;57.81;101489.25;7410793;19;1690;-57
2022/05/08 01:01:32;;;;;;;;;;;;;;;18.58;58.08;101489.13;7409277;19;1865;-57
2022/05/08 01:04:01;;;;;;;;;;;;;;;18.55;57.64;101478.63;7411604;19;1587;-57
2022/05/08 01:06:30;;;;;;;;;;;;;;;18.56;57.61;101490.19;7410408;19;1850;-60
2022/05/08 01:08:58;;;;;;;;;;;;;;;18.55;57.99;101478.63;7408604;19;1793;-58
2022/05/08 01:11:27;;;;;;;;;;;;;;;18.53;57.98;101472.53;7410088;19;1532;-59
2022/05/08 01:13:55;;;;;;;;;;;;;;;18.55;57.87;101478.63;7410260;19;1612;-59
2022/05/08 01:16:26;;;;;;;;;;;;;;;18.55;57.75;101470.59;7410479;19;1513;-60
2022/05/08 01:18:55;;;;;;;;;;;;;;;18.53;57.72;101472.53;7411541;19;1527;-59
2022/05/08 01:21:26;;;;;;;;;;;;;;;18.55;57.79;101484.00;7408545;19;1406;-57
2022/05/08 01:23:56;;;;;;;;;;;;;;;18.53;57.85;101479.72;7409990;19;1520;-59
2022/05/08 01:26:25;;;;;;;;;;;;;;;18.51;57.69;101479.84;7408628;19;1837;-59
2022/05/08 01:28:53;;;;;;;;;;;;;;;18.51;57.95;101471.81;7409790;19;1544;-59
2022/05/08 01:31:21;;;;;;;;;;;;;;;18.50;57.84;101478.13;7409538;19;1611;-57
2022/05/08 01:33:50;;;;;;;;;;;;;;;18.50;58.13;101467.41;7410410;19;1267;-59
2022/05/08 01:36:18;;;;;;;;;;;;;;;18.48;58.05;101480.06;7409598;19;1433;-57
2022/05/08 01:38:46;;;;;;;;;;;;;;;18.51;57.82;101469.13;7410668;19;1492;-57
2022/05/08 01:41:17;;;;;;;;;;;;;;;18.51;57.96;101466.44;7409763;19;1619;-57
2022/05/08 01:43:46;;;;;;;;;;;;;;;18.51;57.79;101466.44;7410314;19;1552;-60
2022/05/08 01:46:14;;;;;;;;;;;;;;;18.53;57.78;101477.06;7410858;19;1683;-57
2022/05/08 01:48:40;;;;;;;;;;;;;;;18.53;57.57;101472.53;7408880;19;1434;-58
2022/05/08 01:51:12;;;;;;;;;;;;;;;18.52;57.60;101465.47;7407765;19;1532;-57
2022/05/08 01:53:40;;;;;;;;;;;;;;;18.51;57.95;101466.44;7410617;19;1541;-60
2022/05/08 01:56:09;;;;;;;;;;;;;;;18.49;57.44;101461.19;7407288;19;1626;-60
2022/05/08 01:58:40;;;;;;;;;;;;;;;18.49;57.91;101466.56;7407641;19;1549;-57
2022/05/08 02:01:10;;;;;;;;;;;;;;;18.51;57.69;101470.97;7401768;19;1451;-57
2022/05/08 02:03:40;;;;;;;;;;;;;;;18.48;58.04;101459.50;7403735;19;1402;-57
2022/05/08 02:06:08;;;;;;;;;;;;;;;18.50;58.29;101472.75;7407229;19;1607;-60
2022/05/08 02:08:37;;;;;;;;;;;;;;;18.52;57.93;101476.19;7404127;19;1888;-57
2022/05/08 02:11:06;;;;;;;;;;;;;;;18.53;57.81;101479.72;7407798;19;1532;-60
2022/05/08 02:13:34;;;;;;;;;;;;;;;18.52;58.03;101488.72;7407205;19;1541;-57
2022/05/08 02:16:06;;;;;;;;;;;;;;;18.52;58.04;101489.56;7406292;19;1742;-57
2022/05/08 02:18:34;;;;;;;;;;;;;;;18.47;57.57;101476.53;7407508;19;1504;-60
2022/05/08 02:21:02;;;;;;;;;;;;;;;18.49;58.19;101479.94;7404772;19;1628;-57
2022/05/08 02:23:34;;;;;;;;;;;;;;;18.52;58.18;101480.69;7407418;19;1448;-57
2022/05/08 02:26:02;;;;;;;;;;;;;;;18.51;58.09;101487.88;7405433;19;1668;-57
2022/05/08 02:28:31;;;;;;;;;;;;;;;18.53;57.76;101493.13;7404695;19;1899;-60
2022/05/08 02:30:59;;;;;;;;;;;;;;;18.51;57.62;101484.34;7406548;19;1524;-57
2022/05/08 02:33:30;;;;;;;;;;;;;;;18.49;57.93;101479.09;7406892;19;1572;-60
2022/05/08 02:35:59;;;;;;;;;;;;;;;18.49;57.48;101476.41;7405769;19;1599;-60
2022/05/08 02:38:27;;;;;;;;;;;;;;;18.51;57.98;101474.47;7407139;19;1513;-57
2022/05/08 02:40:56;;;;;;;;;;;;;;;18.52;57.59;101486.03;7406322;19;1576;-60
2022/05/08 02:43:24;;;;;;;;;;;;;;;18.51;57.44;101477.16;7407529;19;1564;-59
2022/05/08 02:45:52;;;;;;;;;;;;;;;18.47;58.12;101473.00;7406989;19;1710;-59
2022/05/08 02:48:21;;;;;;;;;;;;;;;18.50;58.06;101472.75;7405482;19;1850;-57
2022/05/08 02:50:52;;;;;;;;;;;;;;;18.48;58.05;101477.38;7407194;19;1528;-57
2022/05/08 02:53:20;;;;;;;;;;;;;;;18.48;57.60;101475.56;7408334;19;1591;-57
2022/05/08 02:58:35;;;;;;;;;;;;;;;18.47;57.44;101478.38;7407193;19;1579;-60
2022/05/08 03:01:05;;;;;;;;;;;;;;;18.48;58.02;101486.28;7406718;19;1619;-60
2022/05/08 03:03:33;;;;;;;;;;;;;;;18.45;57.92;101485.66;7408337;19;1553;-60
2022/05/08 03:06:05;;;;;;;;;;;;;;;18.45;57.41;101486.50;7407156;19;1369;-60
2022/05/08 03:08:33;;;;;;;;;;;;;;;18.44;57.79;101484.81;7402674;19;1860;-58
2022/05/08 03:13:43;;;;;;;;;;;;;;;18.47;57.75;101494.44;7407476;19;1243;-60
2022/05/08 03:16:12;;;;;;;;;;;;;;;18.46;57.47;101495.38;7406407;19;1710;-60
2022/05/08 03:18:41;;;;;;;;;;;;;;;18.46;57.64;101487.34;7407570;19;1616;-57
2022/05/08 03:21:12;;;;;;;;;;;;;;;18.44;57.79;101494.66;7404604;19;1305;-59
2022/05/08 03:23:41;;;;;;;;;;;;;;;18.45;57.94;101501.72;7406344;19;1387;-60
2022/05/08 03:26:10;;;;;;;;;;;;;;;18.47;57.64;101510.50;7404329;19;1192;-57
2022/05/08 03:28:40;;;;;;;;;;;;;;;18.45;57.69;101505.25;7405514;19;1869;-57
2022/05/08 03:31:08;;;;;;;;;;;;;;;18.41;57.63;101506.44;7405928;19;1619;-60
2022/05/08 03:33:38;;;;;;;;;;;;;;;18.43;57.78;101500.97;7406465;19;1548;-60
2022/05/08 03:36:06;;;;;;;;;;;;;;;18.44;57.53;101518.75;7404772;19;1357;-57
2022/05/08 03:38:37;;;;;;;;;;;;;;;18.42;57.97;101512.66;7405928;19;1607;-57
2022/05/08 03:41:07;;;;;;;;;;;;;;;18.43;57.83;101519.72;7405966;19;1876;-58
2022/05/08 03:43:36;;;;;;;;;;;;;;;18.40;57.48;101525.31;7404760;19;1064;-60
2022/05/08 03:46:04;;;;;;;;;;;;;;;18.40;57.96;101525.31;7404889;19;1363;-57
2022/05/08 03:48:33;;;;;;;;;;;;;;;18.40;57.56;101528.84;7402559;19;1857;-57
2022/05/08 03:51:01;;;;;;;;;;;;;;;18.40;57.73;101530.66;7404706;19;1262;-60
2022/05/08 03:53:30;;;;;;;;;;;;;;;18.41;57.97;101541.25;7405552;19;1367;-57
2022/05/08 03:56:01;;;;;;;;;;;;;;;18.40;57.42;101547.59;7404764;19;1381;-57
2022/05/08 03:58:29;;;;;;;;;;;;;;;18.40;57.76;101539.56;7404423;19;1452;-57
2022/05/08 04:00:58;;;;;;;;;;;;;;;18.42;58.00;101540.31;7403210;19;1499;-57
2022/05/08 04:03:26;;;;;;;;;;;;;;;18.43;57.82;101549.19;7404034;19;1367;-60
2022/05/08 04:05:55;;;;;;;;;;;;;;;18.44;57.86;101550.88;7403138;19;1159;-57
2022/05/08 04:08:23;;;;;;;;;;;;;;;18.44;57.71;101540.16;7402472;19;1873;-57
2022/05/08 04:10:51;;;;;;;;;;;;;;;18.42;57.97;101528.72;7404326;19;1361;-61
2022/05/08 04:13:22;;;;;;;;;;;;;;;18.44;58.00;101542.84;7403294;19;1361;-57
2022/05/08 04:18:31;;;;;;;;;;;;;;;18.43;57.67;101546.50;7403305;19;1481;-58
2022/05/08 04:21:00;;;;;;;;;;;;;;;18.49;57.88;101548.72;7403613;19;1684;-60
2022/05/08 04:26:09;;;;;;;;;;;;;;;18.40;58.07;101541.38;7404422;19;1357;-58
2022/05/08 04:28:40;;;;;;;;;;;;;;;18.42;58.22;101545.66;7402253;19;1864;-59
2022/05/08 04:31:08;;;;;;;;;;;;;;;18.43;57.73;101546.50;7403029;19;1311;-57
2022/05/08 04:33:37;;;;;;;;;;;;;;;18.44;58.01;101543.72;7404457;19;1316;-60
2022/05/08 04:36:05;;;;;;;;;;;;;;;18.45;58.24;101544.56;7403029;19;1297;-58
2022/05/08 04:38:34;;;;;;;;;;;;;;;18.44;58.11;101548.19;7404642;19;1323;-58
2022/05/08 04:41:02;;;;;;;;;;;;;;;18.43;58.42;101543.84;7401579;19;1353;-61
2022/05/08 04:43:31;;;;;;;;;;;;;;;18.44;58.07;101550.88;7404291;19;1547;-61
2022/05/08 04:46:02;;;;;;;;;;;;;;;18.44;58.03;101548.19;7403151;19;1330;-62
2022/05/08 04:48:30;;;;;;;;;;;;;;;18.48;58.27;101555.03;7401555;19;1845;-58
2022/05/08 04:50:58;;;;;;;;;;;;;;;18.47;58.38;101553.34;7401214;19;1278;-58
2022/05/08 04:53:27;;;;;;;;;;;;;;;18.49;58.13;101559.44;7403605;19;1286;-59
2022/05/08 04:55:55;;;;;;;;;;;;;;;18.51;58.43;101557.50;7402533;19;1351;-59
2022/05/08 04:58:25;;;;;;;;;;;;;;;18.54;58.46;101570.66;7402749;19;1326;-56
2022/05/08 05:00:54;;;;;;;;;;;;;;;18.57;58.11;101562.41;7402475;19;1413;-56
2022/05/08 05:03:25;;;;;;;;;;;;;;;18.59;58.53;101563.16;7400109;19;1271;-60
2022/05/08 05:05:53;;;;;;;;;;;;;;;18.62;58.02;101568.31;7402051;19;1310;-57
2022/05/08 05:09:41;;;;;;;;;;;;;;;18.67;58.20;101560.75;7360830;19;13302;-36
2022/05/08 05:12:10;;;;;;;;;;;;;;;18.64;58.40;101558.31;7434271;19;1718;-37
2022/05/08 05:14:38;;;;;;;;;;;;;;;18.61;58.47;101561.22;7436703;19;1661;-38
2022/05/08 05:17:06;;;;;;;;;;;;;;;18.62;57.56;101570.97;7436030;19;1879;-39
2022/05/08 05:19:34;;;;;;;;;;;;;;;18.64;58.22;101565.47;7436768;19;1647;-37
2022/05/08 05:22:03;;;;;;;;;;;;;;;18.65;57.80;101569.88;7433583;19;1780;-37
2022/05/08 05:24:31;;;;;;;;;;;;;;;18.74;57.78;101568.34;7436741;19;2048;-36
2022/05/08 05:27:02;;;;;;;;;;;;;;;18.78;57.96;101573.38;7435818;19;1844;-36
2022/05/08 05:29:30;;;;;;;;;;;;;;;18.84;58.17;101564.03;7430215;19;1830;-37
2022/05/08 05:31:58;;;;;;;;;;;;;;;18.74;57.65;101573.69;7436056;19;1857;-37
2022/05/08 05:34:27;;;;;;;;;;;;;;;18.73;57.29;101580.03;7433684;19;1492;-37
2022/05/08 05:36:55;;;;;;;;;;;;;;;18.73;57.28;101580.03;7431305;19;1541;-39
2022/05/08 05:39:24;;;;;;;;;;;;;;;18.73;57.78;101561.28;7430444;19;1559;-36
2022/05/08 05:41:52;;;;;;;;;;;;;;;18.77;57.61;101579.69;7435452;19;1364;-37
2022/05/08 05:44:23;;;;;;;;;;;;;;;18.77;57.74;101570.81;7434498;19;1232;-37
2022/05/08 05:49:32;;;;;;;;;;;;;;;18.81;57.93;101583.88;7433582;19;1844;-37
2022/05/08 05:52:02;;;;;;;;;;;;;;;18.79;57.53;101566.19;7434116;19;1657;-37
2022/05/08 05:54:30;;;;;;;;;;;;;;;18.76;58.17;101561.91;7434440;19;1719;-37
2022/05/08 05:56:58;;;;;;;;;;;;;;;18.80;58.07;101559.88;7434718;19;1340;-37
2022/05/08 05:59:29;;;;;;;;;;;;;;;18.75;57.56;101568.22;7434122;19;1533;-37
2022/05/08 06:01:58;;;;;;;;;;;;;;;18.78;57.50;101562.66;7430949;19;1625;-37
2022/05/08 06:04:26;;;;;;;;;;;;;;;18.82;57.51;101568.66;7435141;19;1486;-37
2022/05/08 06:06:54;;;;;;;;;;;;;;;18.78;57.47;101545.69;7434187;19;1624;-37
2022/05/08 06:09:22;;;;;;;;;;;;;;;18.79;57.46;101559.03;7432312;19;1885;-37
2022/05/08 06:11:52;;;;;;;;;;;;;;;18.81;57.71;101542.84;7436149;19;1467;-38
2022/05/08 06:14:20;;;;;;;;;;;;;;;18.73;57.27;101540.69;7437683;19;1560;-37
2022/05/08 06:16:51;;;;;;;;;;;;;;;18.84;57.20;101556.00;7434919;19;1450;-37
2022/05/08 06:19:19;;;;;;;;;;;;;;;18.86;57.68;101548.69;7425707;19;1668;-37
2022/05/08 06:21:47;;;;;;;;;;;;;;;18.84;57.57;101556.00;7405212;19;1838;-37
2022/05/08 06:24:16;;;;;;;;;;;;;;;18.86;57.88;101557.59;7406095;19;1647;-37
2022/05/08 06:26:44;;;;;;;;;;;;;;;18.87;57.50;101558.44;7404980;19;1671;-37
2022/05/08 06:29:12;;;;;;;;;;;;;;;18.90;57.90;101563.59;7403280;19;1861;-37
2022/05/08 06:31:40;;;;;;;;;;;;;;;18.88;57.51;101546.78;7405503;19;1622;-37
2022/05/08 06:34:11;;;;;;;;;;;;;;;18.93;57.50;101559.81;7408547;19;1791;-37
2022/05/08 06:36:40;;;;;;;;;;;;;;;18.91;57.37;101551.88;7403622;19;1576;-37
2022/05/08 06:39:08;;;;;;;;;;;;;;;18.89;57.35;101543.09;7405005;19;1839;-37
2022/05/08 06:41:36;;;;;;;;;;;;;;;18.90;57.66;101555.56;7404731;19;1798;-37
2022/05/08 06:44:04;;;;;;;;;;;;;;;18.93;57.60;101549.94;7405196;19;1496;-37
2022/05/08 06:46:36;;;;;;;;;;;;;;;18.98;59.00;101558.50;7406393;19;1987;-36
2022/05/08 06:49:05;;;;;;;;;;;;;;;19.22;58.60;101555.78;7403312;19;1885;-38
2022/05/08 06:51:36;;;;;;;;;;;;;;;19.17;58.90;101567.81;7403019;19;1666;-37
2022/05/08 06:54:05;;;;;;;;;;;;;;;19.18;58.89;101556.09;7405556;19;1643;-38
2022/05/08 06:56:35;;;;;;;;;;;;;;;19.19;58.36;101561.38;7404204;19;1434;-37
2022/05/08 07:01:45;;;;;;;;;;;;;;;19.24;58.94;101563.72;7402577;19;1439;-37
2022/05/08 07:04:14;;;;;;;;;;;;;;;19.23;59.30;101570.88;7402289;19;1601;-37
2022/05/08 07:06:45;;;;;;;;;;;;;;;19.21;59.40;101566.63;7402748;19;1716;-38
2022/05/08 07:09:13;;;;;;;;;;;;;;;19.21;59.56;101575.50;7402199;19;1880;-37
2022/05/08 07:11:44;;;;;;;;;;;;;;;19.21;59.41;101582.69;7404683;19;2037;-37
2022/05/08 07:14:13;;;;;;;;;;;;;;;19.14;58.95;101566.25;7403072;19;1597;-37
2022/05/08 07:16:41;;;;;;;;;;;;;;;19.14;59.25;101570.72;7404814;19;1524;-37
2022/05/08 07:19:09;;;;;;;;;;;;;;;19.15;59.26;101567.09;7402532;19;1481;-38
2022/05/08 07:21:38;;;;;;;;;;;;;;;19.10;58.86;101583.53;7403263;19;1961;-37
2022/05/08 07:24:09;;;;;;;;;;;;;;;19.04;59.06;101575.97;7403976;19;1574;-37
2022/05/08 07:26:38;;;;;;;;;;;;;;;19.02;58.85;101564.47;7403083;19;1771;-37
2022/05/08 07:29:07;;;;;;;;;;;;;;;18.94;59.04;101557.03;7401915;19;1842;-37
2022/05/08 07:31:35;;;;;;;;;;;;;;;18.94;59.06;101566.88;7399830;19;1447;-38
2022/05/08 07:36:44;;;;;;;;;;;;;;;18.84;58.67;101561.34;7396709;19;1546;-38
2022/05/08 07:39:21;;;;;;;;;;;;;;;18.85;58.47;101563.06;7401904;19;1817;-37
2022/05/08 07:41:49;;;;;;;;;;;;;;;18.86;58.96;101562.09;7402340;19;1485;-37
2022/05/08 07:44:17;;;;;;;;;;;;;;;18.87;58.32;101566.50;7403630;19;1497;-37
2022/05/08 07:46:46;;;;;;;;;;;;;;;18.85;59.00;101563.06;7403518;19;1546;-38
2022/05/08 07:49:14;;;;;;;;;;;;;;;18.86;58.59;101565.66;7401117;19;1872;-39
2022/05/08 07:51:42;;;;;;;;;;;;;;;18.88;58.40;101576.25;7403211;19;1564;-37
2022/05/08 07:54:11;;;;;;;;;;;;;;;18.84;58.57;101561.34;7403244;19;1928;-38
2022/05/08 07:56:42;;;;;;;;;;;;;;;18.82;58.63;101557.94;7402446;19;1585;-38
2022/05/08 07:59:10;;;;;;;;;;;;;;;18.82;58.48;101564.16;7401916;19;1770;-38
2022/05/08 08:01:39;;;;;;;;;;;;;;;18.85;58.61;101579.16;7400282;19;1986;-36
2022/05/08 08:04:08;;;;;;;;;;;;;;;18.81;58.41;101572.31;7403186;19;1684;-39
2022/05/08 08:06:37;;;;;;;;;;;;;;;18.81;58.39;101561.59;7399771;19;1478;-39
2022/05/08 08:09:06;;;;;;;;;;;;;;;18.82;58.85;101574.00;7400155;19;1857;-38
2022/05/08 08:11:35;;;;;;;;;;;;;;;18.80;58.27;101581.31;7402755;19;1456;-37
2022/05/08 08:14:06;;;;;;;;;;;;;;;18.86;58.51;101586.19;7403152;19;1853;-38
2022/05/08 08:16:34;;;;;;;;;;;;;;;18.82;58.61;101580.25;7400568;19;1426;-38
2022/05/08 08:19:02;;;;;;;;;;;;;;;18.82;58.65;101574.00;7401313;19;1744;-38
2022/05/08 08:21:31;;;;;;;;;;;;;;;18.83;58.80;101581.94;7402353;19;1739;-38
2022/05/08 08:24:00;;;;;;;;;;;;;;;18.79;58.26;101577.78;7403422;19;1786;-38
2022/05/08 08:26:28;;;;;;;;;;;;;;;18.81;58.42;101580.34;7401883;19;1544;-38
2022/05/08 08:28:56;;;;;;;;;;;;;;;18.88;58.38;101573.56;7398900;19;1867;-38
2022/05/08 08:31:27;;;;;;;;;;;;;;;18.88;58.44;101573.56;7401803;19;1598;-38
2022/05/08 08:33:56;;;;;;;;;;;;;;;18.85;58.20;101574.63;7402512;19;1675;-38
2022/05/08 08:36:24;;;;;;;;;;;;;;;18.87;58.07;101567.34;7400483;19;1790;-38
2022/05/08 08:38:53;;;;;;;;;;;;;;;18.81;57.88;101558.91;7401046;19;1480;-38
2022/05/08 08:41:24;;;;;;;;;;;;;;;18.79;57.86;101563.50;7402453;19;1576;-38
2022/05/08 08:49:21;;;;;;;;;;;;;;;18.82;57.22;101574.00;7400793;19;1847;-38
2022/05/08 08:51:49;;;;;;;;;;;;;;;18.83;57.34;101563.19;7400843;19;1331;-38
2022/05/08 08:54:19;;;;;;;;;;;;;;;18.91;56.79;101567.13;7402032;19;1735;-38
2022/05/08 08:56:47;;;;;;;;;;;;;;;18.85;56.83;101568.44;7400492;19;1822;-37
2022/05/08 08:59:15;;;;;;;;;;;;;;;18.84;57.39;101561.34;7401093;19;1581;-37
2022/05/08 09:01:46;;;;;;;;;;;;;;;18.82;57.28;101556.13;7399393;19;1606;-38
2022/05/08 09:04:15;;;;;;;;;;;;;;;18.85;57.18;101544.31;7401085;19;1514;-38
2022/05/08 09:06:43;;;;;;;;;;;;;;;18.87;57.16;101555.78;7400374;19;1787;-38
2022/05/08 09:09:25;;;;;;;;;;;;;;;18.89;56.98;101564.56;7399525;19;1850;-39
2022/05/08 09:11:53;;;;;;;;;;;;;;;18.92;56.93;101553.63;7399966;19;1778;-38
2022/05/08 09:14:31;;;;;;;;;;;;;;;18.94;57.17;101551.66;7401444;19;1546;-38
2022/05/08 09:17:03;;;;;;;;;;;;;;;18.99;57.40;101551.31;7401379;19;1645;-38
2022/05/08 09:19:34;;;;;;;;;;;;;;;18.97;57.33;101551.41;7400567;19;1747;-37
2022/05/08 09:22:03;;;;;;;;;;;;;;;19.04;57.31;101541.09;7400041;19;1720;-38
2022/05/08 09:24:31;;;;;;;;;;;;;;;19.15;57.08;101554.53;7400769;19;1856;-39
2022/05/08 09:27:12;;;;;;;;;;;;;;;19.28;56.93;101539.22;7400975;19;1611;-38
2022/05/08 09:29:40;;;;;;;;;;;;;;;19.19;57.33;101531.03;7397193;19;1843;-37
2022/05/08 09:32:12;;;;;;;;;;;;;;;19.17;57.08;101536.50;7398979;19;1713;-38
2022/05/08 09:34:55;;;;;;;;;;;;;;;19.06;57.60;101534.66;7400081;19;1758;-38
2022/05/08 09:37:23;;;;;;;;;;;;;;;19.11;58.06;101530.75;7399801;19;1592;-38
2022/05/08 09:39:52;;;;;;;;;;;;;;;19.12;57.68;101535.13;7397237;19;1871;-37
2022/05/08 09:42:41;;;;;;;;;;;;;;;19.05;57.74;101522.19;7398479;19;1601;-38
2022/05/08 09:45:10;;;;;;;;;;;;;;;19.04;57.94;101531.22;7397866;19;1867;-37
2022/05/08 09:47:45;;;;;;;;;;;;;;;19.11;58.07;101525.41;7399308;19;1719;-38
2022/05/08 09:50:14;;;;;;;;;;;;;;;19.01;57.97;101515.38;7397214;19;1847;-38
2022/05/08 09:52:43;;;;;;;;;;;;;;;19.01;57.72;101512.69;7399764;19;1978;-38
2022/05/08 09:55:12;;;;;;;;;;;;;;;18.99;57.62;101525.34;7401787;19;1591;-38
2022/05/08 09:57:41;;;;;;;;;;;;;;;19.00;57.51;101513.69;7408397;19;1811;-38
2022/05/08 10:00:10;;;;;;;;;;;;;;;18.98;57.66;101509.38;7407318;19;1816;-37
2022/05/08 10:02:39;;;;;;;;;;;;;;;18.98;57.67;101504.91;7403803;19;1904;-38
2022/05/08 10:05:10;;;;;;;;;;;;;;;19.00;57.98;101511.00;7405957;19;1895;-37
2022/05/08 10:07:39;;;;;;;;;;;;;;;19.01;57.67;101499.28;7404422;19;1783;-38
2022/05/08 10:15:36;;;;;;;;;;;;;;;19.00;57.93;101502.94;7406457;19;1893;-39
2022/05/08 10:18:19;;;;;;;;;;;;;;;19.03;57.90;101508.06;7405983;19;1661;-38
2022/05/08 10:21:04;;;;;;;;;;;;;;;19.01;57.67;101485.03;7404951;19;1445;-37
2022/05/08 10:23:45;;;;;;;;;;;;;;;19.01;57.85;101496.59;7404823;19;1728;-38
2022/05/08 10:26:20;;;;;;;;;;;;;;;18.99;58.09;101477.09;7405079;19;1548;-37
2022/05/08 10:29:09;;;;;;;;;;;;;;;19.00;58.00;101476.16;7403758;19;1530;-37
2022/05/08 10:31:48;;;;;;;;;;;;;;;19.01;57.98;101477.00;7405078;19;1622;-37
2022/05/08 10:34:17;;;;;;;;;;;;;;;19.01;58.22;101477.00;7404684;19;1677;-37
2022/05/08 10:37:00;;;;;;;;;;;;;;;19.04;57.91;101482.13;7405113;19;1676;-37
2022/05/08 10:39:41;;;;;;;;;;;;;;;19.05;57.73;101465.91;7405279;19;1946;-38
2022/05/08 10:42:30;;;;;;;;;;;;;;;19.06;58.14;101480.19;7405137;19;1759;-37
2022/05/08 10:45:01;;;;;;;;;;;;;;;19.04;57.87;101469.56;7402628;19;1959;-38
2022/05/08 10:47:43;;;;;;;;;;;;;;;19.06;57.59;101464.94;7407390;19;1689;-38
2022/05/08 10:50:12;;;;;;;;;;;;;;;19.07;57.72;101461.28;7402929;19;1865;-37
2022/05/08 10:52:44;;;;;;;;;;;;;;;19.11;57.68;101461.06;7403500;19;1673;-38
2022/05/08 10:55:14;;;;;;;;;;;;;;;19.08;57.65;101468.38;7404550;19;1587;-38
2022/05/08 10:57:43;;;;;;;;;;;;;;;19.10;57.98;101460.22;7404937;19;1653;-37
2022/05/08 11:00:15;;;;;;;;;;;;;;;19.11;57.96;101458.38;7405439;19;1820;-37
2022/05/08 11:02:44;;;;;;;;;;;;;;;19.08;57.56;101463.00;7402606;19;2081;-37
2022/05/08 11:05:13;;;;;;;;;;;;;;;19.06;57.83;101454.22;7403863;19;1435;-37
2022/05/08 11:07:41;;;;;;;;;;;;;;;19.03;57.91;101433.00;7407179;19;1606;-36
2022/05/08 11:10:16;;;;;;;;;;;;;;;19.11;57.94;101453.00;7401793;19;1850;-37
2022/05/08 11:12:58;;;;;;;;;;;;;;;19.08;58.25;101440.72;7403594;19;1436;-37
2022/05/08 11:15:30;;;;;;;;;;;;;;;19.10;58.00;101449.50;7404649;19;1131;-36
2022/05/08 11:18:07;;;;;;;;;;;;;;;19.11;57.97;101453.88;7404627;19;1643;-37
2022/05/08 11:20:36;;;;;;;;;;;;;;;19.08;57.71;101430.84;7405537;19;1710;-37
2022/05/08 11:23:05;;;;;;;;;;;;;;;19.14;57.66;101431.31;7404844;19;1397;-37
2022/05/08 11:25:33;;;;;;;;;;;;;;;19.14;58.02;101448.28;7403583;19;1675;-37
2022/05/08 11:28:02;;;;;;;;;;;;;;;19.15;57.96;101425.00;7402938;19;1967;-37
2022/05/08 11:30:36;;;;;;;;;;;;;;;19.15;58.11;101431.19;7402258;19;1868;-38
2022/05/08 11:38:29;;;;;;;;;;;;;;;19.17;57.91;101421.22;7403144;19;1610;-36
2022/05/08 11:40:58;;;;;;;;;;;;;;;19.18;58.07;101422.94;7403250;19;1612;-36
2022/05/08 11:43:42;;;;;;;;;;;;;;;19.16;58.13;101405.22;7403583;19;1560;-37
2022/05/08 11:46:15;;;;;;;;;;;;;;;19.28;57.88;101417.69;7400193;19;1965;-36
2022/05/08 11:48:46;;;;;;;;;;;;;;;19.34;58.29;101397.56;7400898;19;1928;-36
2022/05/08 11:51:15;;;;;;;;;;;;;;;19.35;58.23;101384.03;7400786;19;1853;-36
2022/05/08 11:53:43;;;;;;;;;;;;;;;19.43;57.87;101381.59;7402316;19;1632;-37
2022/05/08 11:56:27;;;;;;;;;;;;;;;19.37;59.33;101390.13;7401766;19;1550;-37
2022/05/08 11:58:55;;;;;;;;;;;;;;;19.35;60.63;101383.19;7401978;19;1717;-36
2022/05/08 12:01:27;;;;;;;;;;;;;;;19.28;61.96;101391.72;7399710;19;2449;-36
2022/05/08 12:03:56;;;;;;;;;;;;;;;19.32;60.49;101386.97;7403182;19;1872;-36
2022/05/08 12:06:24;;;;;;;;;;;;;;;19.29;60.06;101376.47;7403058;19;1628;-36
2022/05/08 12:08:53;;;;;;;;;;;;;;;19.22;59.98;101378.81;7401347;19;1637;-36
2022/05/08 12:11:37;;;;;;;;;;;;;;;19.22;59.62;101367.25;7400254;19;1845;-36
2022/05/08 12:14:06;;;;;;;;;;;;;;;19.27;60.11;101375.75;7402164;19;1444;-38
2022/05/08 12:16:37;;;;;;;;;;;;;;;19.30;60.13;101382.69;7402033;19;1979;-36
2022/05/08 12:19:16;;;;;;;;;;;;;;;19.29;60.41;101376.47;7400062;19;1073;-36
2022/05/08 12:21:45;;;;;;;;;;;;;;;19.29;60.05;101368.44;7401822;19;1890;-36
2022/05/08 12:24:14;;;;;;;;;;;;;;;19.30;60.13;101374.66;7402890;19;1815;-36
2022/05/08 12:26:42;;;;;;;;;;;;;;;19.26;60.20;101364.19;7399758;19;1930;-36
2022/05/08 12:29:17;;;;;;;;;;;;;;;19.22;60.69;101364.56;7400765;19;1676;-36
2022/05/08 12:31:50;;;;;;;;;;;;;;;19.22;60.71;101362.72;7398433;19;1881;-36
2022/05/08 12:34:18;;;;;;;;;;;;;;;19.20;60.41;101366.47;7400758;19;1679;-37
2022/05/08 12:36:48;;;;;;;;;;;;;;;19.22;60.37;101361.88;7400582;19;1763;-36
2022/05/08 12:39:17;;;;;;;;;;;;;;;19.21;60.71;101369.03;7399475;19;1867;-36
2022/05/08 12:41:45;;;;;;;;;;;;;;;19.21;60.56;101365.53;7399485;19;1585;-37
2022/05/08 12:44:14;;;;;;;;;;;;;;;19.19;60.94;101367.47;7401168;19;1738;-37
2022/05/08 12:46:42;;;;;;;;;;;;;;;19.18;60.76;101344.28;7402692;19;1598;-36
2022/05/08 12:49:14;;;;;;;;;;;;;;;19.17;60.44;101347.97;7399526;19;1835;-36
2022/05/08 12:51:42;;;;;;;;;;;;;;;19.18;60.76;101355.91;7398688;19;2106;-36
2022/05/08 12:54:11;;;;;;;;;;;;;;;19.19;60.58;101348.69;7402769;19;1802;-36
2022/05/08 12:56:40;;;;;;;;;;;;;;;19.19;60.93;101346.03;7401241;19;1923;-37
2022/05/08 13:01:49;;;;;;;;;;;;;;;19.19;60.55;101352.22;7400836;19;1632;-37
2022/05/08 13:04:20;;;;;;;;;;;;;;;19.12;60.90;101343.00;7399379;19;1487;-36
2022/05/08 13:06:48;;;;;;;;;;;;;;;19.17;60.27;101345.28;7399253;19;1531;-37
2022/05/08 13:09:16;;;;;;;;;;;;;;;19.17;59.63;101339.94;7398054;19;1547;-36
2022/05/08 13:11:45;;;;;;;;;;;;;;;19.19;60.19;101336.13;7399076;19;1914;-36
2022/05/08 13:14:13;;;;;;;;;;;;;;;19.15;60.68;101329.31;7400988;19;1844;-36
2022/05/08 13:16:42;;;;;;;;;;;;;;;19.11;60.54;101325.19;7400004;19;1555;-36
2022/05/08 13:19:10;;;;;;;;;;;;;;;19.13;59.76;101322.38;7400069;19;1712;-36
2022/05/08 13:21:41;;;;;;;;;;;;;;;19.15;60.07;101315.06;7399746;19;2040;-37
2022/05/08 13:24:09;;;;;;;;;;;;;;;19.36;59.75;101313.34;7398439;19;1633;-38
2022/05/08 13:26:38;;;;;;;;;;;;;;;19.53;59.15;101321.84;7400311;19;1670;-37
2022/05/08 13:29:07;;;;;;;;;;;;;;;19.43;59.72;101314.53;7399106;19;1858;-39
2022/05/08 13:31:38;;;;;;;;;;;;;;;19.38;59.61;101338.22;7404581;19;1860;-37
2022/05/08 13:34:07;;;;;;;;;;;;;;;19.41;60.02;101313.81;7407285;19;1846;-37
2022/05/08 13:36:35;;;;;;;;;;;;;;;19.45;58.97;101314.41;7407590;19;1657;-36
2022/05/08 13:39:07;;;;;;;;;;;;;;;19.29;59.70;101298.72;7407235;19;1581;-37
2022/05/08 13:41:35;;;;;;;;;;;;;;;19.22;59.42;101306.41;7406372;19;1638;-38